createdAt,value
2019-04-21T00:02:01.246Z,9.00
2019-04-21T00:04:46.853Z,9.47
2019-04-21T00:07:27.749Z,9.37
2019-04-21T00:10:09.424Z,10.27
2019-04-21T00:12:28.685Z,10.67
2019-04-21T00:14:57.898Z,9.67
2019-04-21T00:17:24.604Z,9.90
2019-04-21T00:20:11.481Z,9.90
2019-04-21T00:22:44.426Z,10.17
2019-04-21T00:25:21.338Z,9.63
2019-04-21T00:27:51.615Z,10.00
2019-04-21T00:30:34.242Z,10.57
2019-04-21T00:32:54.002Z,10.63
2019-04-21T00:35:21.255Z,9.87
2019-04-21T00:38:15.406Z,9.80
2019-04-21T00:40:52.102Z,9.90
2019-04-21T00:43:18.378Z,10.17
2019-04-21T00:45:43.469Z,10.47
2019-04-21T00:48:23.316Z,11.50
2019-04-21T00:51:10.994Z,11.67
2019-04-21T00:54:02.778Z,10.70
2019-04-21T00:56:27.471Z,11.07
2019-04-21T00:58:59.380Z,11.07
2019-04-21T01:01:28.065Z,11.37
2019-04-21T01:04:06.646Z,11.07
2019-04-21T01:06:38.111Z,10.77
2019-04-21T01:09:03.745Z,10.57
2019-04-21T01:11:46.797Z,10.80
2019-04-21T01:14:20.089Z,10.87
2019-04-21T01:16:56.182Z,11.40
2019-04-21T01:19:16.661Z,11.43
2019-04-21T01:21:31.820Z,11.63
2019-04-21T01:24:11.788Z,11.53
2019-04-21T01:26:48.369Z,11.87
2019-04-21T01:29:35.688Z,11.37
2019-04-21T01:32:05.119Z,11.97
2019-04-21T01:34:39.116Z,11.13
2019-04-21T01:37:03.898Z,11.00
2019-04-21T01:39:51.480Z,11.73
2019-04-21T01:42:19.128Z,10.40
2019-04-21T01:44:47.427Z,11.07
2019-04-21T01:47:17.391Z,11.77
2019-04-21T01:49:43.169Z,11.50
2019-04-21T01:52:38.285Z,11.03
2019-04-21T01:55:12.344Z,11.47
2019-04-21T01:58:00.393Z,11.30
2019-04-21T02:00:41.188Z,11.60
2019-04-21T02:03:37.527Z,11.50
2019-04-21T02:06:00.032Z,11.53
2019-04-21T02:08:21.939Z,11.60
2019-04-21T02:11:00.649Z,11.30
2019-04-21T02:13:27.644Z,11.83
2019-04-21T02:16:08.453Z,12.17
2019-04-21T02:18:33.705Z,10.77
2019-04-21T02:20:58.022Z,11.10
2019-04-21T02:23:47.958Z,10.90
2019-04-21T02:26:16.381Z,10.70
2019-04-21T02:28:58.580Z,11.40
2019-04-21T02:39:15.747Z,11.50
2019-04-21T02:41:51.195Z,11.13
2019-04-21T02:44:15.945Z,10.77
2019-04-21T02:46:49.446Z,11.27
2019-04-21T02:52:06.843Z,11.20
2019-04-21T02:54:48.274Z,10.70
2019-04-21T02:59:59.548Z,11.27
2019-04-21T03:05:26.171Z,11.13
2019-04-21T03:07:52.226Z,11.10
2019-04-21T03:10:18.308Z,10.63
2019-04-21T03:12:48.231Z,10.67
2019-04-21T03:18:04.180Z,10.57
2019-04-21T03:20:36.212Z,11.30
2019-04-21T03:23:07.755Z,11.00
2019-04-21T03:25:41.620Z,11.53
2019-04-21T03:36:13.073Z,10.43
2019-04-21T03:38:31.840Z,10.90
2019-04-21T03:41:01.395Z,11.70
2019-04-21T03:43:28.207Z,11.03
2019-04-21T03:45:58.175Z,11.40
2019-04-21T03:48:36.562Z,11.27
2019-04-21T03:51:18.939Z,11.70
2019-04-21T03:53:39.932Z,11.10
2019-04-21T03:56:14.622Z,11.47
2019-04-21T04:01:40.687Z,11.53
2019-04-21T04:04:37.206Z,11.20
2019-04-21T04:10:22.384Z,11.93
2019-04-21T04:12:52.220Z,11.53
2019-04-21T04:15:31.097Z,11.83
2019-04-21T04:17:53.969Z,11.97
2019-04-21T04:20:33.249Z,11.70
2019-04-21T04:23:03.353Z,11.27
2019-04-21T04:25:33.784Z,12.10
2019-04-21T04:28:28.723Z,13.20
2019-04-21T04:30:45.300Z,11.97
2019-04-21T04:33:21.285Z,12.47
2019-04-21T04:36:05.959Z,12.27
2019-04-21T04:38:32.601Z,11.47
2019-04-21T04:41:06.229Z,12.43
2019-04-21T04:43:35.283Z,12.73
2019-04-21T04:46:18.266Z,12.93
2019-04-21T04:51:37.113Z,12.70
2019-04-21T04:53:44.024Z,13.37
2019-04-21T04:56:20.739Z,13.03
2019-04-21T04:59:23.119Z,12.67
2019-04-21T05:01:42.450Z,12.80
2019-04-21T05:03:58.013Z,12.90
2019-04-21T05:06:42.633Z,12.73
2019-04-21T05:09:09.474Z,12.90
2019-04-21T05:11:44.616Z,13.10
2019-04-21T05:14:23.021Z,13.60
2019-04-21T05:16:46.664Z,13.60
2019-04-21T05:19:18.107Z,13.97
2019-04-21T05:22:06.809Z,14.13
2019-04-21T05:24:12.371Z,14.30
2019-04-21T05:26:46.192Z,14.17
2019-04-21T05:29:15.799Z,13.63
2019-04-21T05:32:03.193Z,13.63
2019-04-21T05:34:35.658Z,14.03
2019-04-21T05:37:25.779Z,14.17
2019-04-21T05:40:10.539Z,14.53
2019-04-21T05:42:39.975Z,14.43
2019-04-21T05:45:24.163Z,15.03
2019-04-21T05:48:11.651Z,14.57
2019-04-21T05:50:32.077Z,15.43
2019-04-21T05:53:08.228Z,15.60
2019-04-21T05:55:43.523Z,15.47
2019-04-21T05:58:13.077Z,15.33
2019-04-21T06:03:41.015Z,16.07
2019-04-21T06:08:39.039Z,16.27
2019-04-21T06:11:16.157Z,16.00
2019-04-21T06:13:51.633Z,16.20
2019-04-21T06:16:14.397Z,16.60
2019-04-21T06:18:57.249Z,15.73
2019-04-21T06:21:23.278Z,16.63
2019-04-21T06:23:56.974Z,15.37
2019-04-21T06:26:52.084Z,16.43
2019-04-21T06:29:04.253Z,15.33
2019-04-21T06:32:16.719Z,16.03
2019-04-21T06:34:08.140Z,15.73
2019-04-21T06:37:08.177Z,15.37
2019-04-21T06:39:48.263Z,14.70
2019-04-21T06:42:02.457Z,15.97
2019-04-21T06:44:49.072Z,15.40
2019-04-21T06:47:26.557Z,14.30
2019-04-21T06:49:43.267Z,15.10
2019-04-21T06:52:42.302Z,14.70
2019-04-21T06:54:56.062Z,15.13
2019-04-21T06:57:28.738Z,15.03
2019-04-21T06:59:59.847Z,15.07
2019-04-21T07:02:50.688Z,15.10
2019-04-21T07:05:15.251Z,14.70
2019-04-21T07:07:43.427Z,14.27
2019-04-21T07:10:14.329Z,14.50
2019-04-21T07:12:45.038Z,15.30
2019-04-21T07:15:16.834Z,15.37
2019-04-21T07:17:54.017Z,15.33
2019-04-21T07:20:21.481Z,14.90
2019-04-21T07:23:03.559Z,14.43
2019-04-21T07:25:32.674Z,13.90
2019-04-21T07:28:02.969Z,14.27
2019-04-21T07:30:43.955Z,13.40
2019-04-21T07:33:37.783Z,13.57
2019-04-21T07:35:45.800Z,12.90
2019-04-21T07:38:19.552Z,12.50
2019-04-21T07:40:49.486Z,12.20
2019-04-21T07:43:18.378Z,13.10
2019-04-21T07:45:49.826Z,12.67
2019-04-21T07:48:43.279Z,12.27
2019-04-21T07:51:42.329Z,13.07
2019-04-21T07:54:13.958Z,11.67
2019-04-21T07:56:28.287Z,11.63
2019-04-21T07:59:12.734Z,12.47
2019-04-21T08:01:51.957Z,12.20
2019-04-21T08:04:43.550Z,11.53
2019-04-21T08:06:52.079Z,12.70
2019-04-21T08:09:29.481Z,12.57
2019-04-21T08:11:57.502Z,11.70
2019-04-21T08:14:35.619Z,12.00
2019-04-21T08:17:14.334Z,12.83
2019-04-21T08:19:38.320Z,11.97
2019-04-21T08:22:17.082Z,12.07
2019-04-21T08:24:49.179Z,11.77
2019-04-21T08:27:30.576Z,12.03
2019-04-21T08:29:51.907Z,11.67
2019-04-21T08:32:36.268Z,13.20
2019-04-21T08:35:22.766Z,11.80
2019-04-21T08:37:34.990Z,11.57
2019-04-21T08:40:09.860Z,11.90
2019-04-21T08:42:38.741Z,11.70
2019-04-21T08:45:19.023Z,11.87
2019-04-21T08:47:50.270Z,12.00
2019-04-21T08:50:15.210Z,11.40
2019-04-21T08:55:51.040Z,11.70
2019-04-21T09:01:14.110Z,11.63
2019-04-21T09:03:56.726Z,11.00
2019-04-21T09:06:40.342Z,11.77
2019-04-21T09:11:30.707Z,10.77
2019-04-21T09:14:07.726Z,10.63
2019-04-21T09:16:35.467Z,10.70
2019-04-21T09:19:04.411Z,10.43
2019-04-21T09:21:45.239Z,9.70
2019-04-21T09:24:19.371Z,9.93
2019-04-21T09:26:51.495Z,10.60
2019-04-21T09:29:16.012Z,9.23
2019-04-21T09:31:41.839Z,10.53
2019-04-21T09:34:20.647Z,10.03
2019-04-21T09:36:49.527Z,9.57
2019-04-21T09:39:21.880Z,10.00
2019-04-21T09:41:54.471Z,9.27
2019-04-21T09:44:29.035Z,9.77
2019-04-21T09:46:59.988Z,10.03
2019-04-21T09:49:31.710Z,9.50
2019-04-21T09:52:02.336Z,9.20
2019-04-21T09:54:40.886Z,8.93
2019-04-21T09:57:14.595Z,9.27
2019-04-21T09:59:42.351Z,9.80
2019-04-21T10:02:18.169Z,9.13
2019-04-21T10:04:46.242Z,8.27
2019-04-21T10:07:26.415Z,7.93
2019-04-21T10:09:52.276Z,7.43
2019-04-21T10:12:23.708Z,8.10
2019-04-21T10:14:55.365Z,8.33
2019-04-21T10:17:39.573Z,8.17
2019-04-21T10:20:14.248Z,7.47
2019-04-21T10:22:46.768Z,9.17
2019-04-21T10:25:18.719Z,8.77
2019-04-21T10:27:50.087Z,7.90
2019-04-21T10:30:24.283Z,8.87
2019-04-21T10:32:56.589Z,9.23
2019-04-21T10:35:28.901Z,9.30
2019-04-21T10:38:12.921Z,8.50
2019-04-21T10:40:36.910Z,8.27
2019-04-21T10:43:10.763Z,8.23
2019-04-21T10:45:41.053Z,7.80
2019-04-21T10:48:12.790Z,8.33
2019-04-21T10:50:45.286Z,8.47
2019-04-21T10:53:20.883Z,8.20
2019-04-21T10:56:04.420Z,8.10
2019-04-21T10:58:30.514Z,8.50
2019-04-21T11:01:08.375Z,8.20
2019-04-21T11:04:23.096Z,7.87
2019-04-21T11:06:50.612Z,8.53
2019-04-21T11:09:22.436Z,8.03
2019-04-21T11:11:53.811Z,7.90
2019-04-21T11:14:25.405Z,8.27
2019-04-21T11:16:56.750Z,8.00
2019-04-21T11:19:28.664Z,8.47
2019-04-21T11:22:01.032Z,8.23
2019-04-21T11:24:33.312Z,7.83
2019-04-21T11:27:04.751Z,9.00
2019-04-21T11:29:37.153Z,8.50
2019-04-21T11:32:09.316Z,8.10
2019-04-21T11:34:41.013Z,8.93
2019-04-21T11:37:14.452Z,8.90
2019-04-21T11:39:52.140Z,8.33
2019-04-21T11:42:29.971Z,8.60
2019-04-21T11:45:01.455Z,8.40
2019-04-21T11:47:38.502Z,8.20
2019-04-21T11:50:10.884Z,8.10
2019-04-21T11:52:43.185Z,7.37
2019-04-21T11:55:14.592Z,7.70
2019-04-21T11:57:49.450Z,8.53
2019-04-21T12:00:19.873Z,7.97
2019-04-21T12:02:51.272Z,7.60
2019-04-21T12:05:23.629Z,8.00
2019-04-21T12:07:58.290Z,7.80
2019-04-21T12:10:29.249Z,8.60
2019-04-21T12:13:01.659Z,8.87
2019-04-21T12:15:34.652Z,8.17
2019-04-21T12:18:06.081Z,7.37
2019-04-21T12:20:37.660Z,7.93
2019-04-21T12:23:09.022Z,8.03
2019-04-21T12:25:43.537Z,7.77
2019-04-21T12:28:15.982Z,8.00
2019-04-21T12:30:49.881Z,7.63
2019-04-21T12:33:43.638Z,7.30
2019-04-21T12:36:15.844Z,8.70
2019-04-21T12:38:53.956Z,7.73
2019-04-21T12:41:22.478Z,7.50
2019-04-21T12:43:54.965Z,7.70
2019-04-21T12:46:27.656Z,7.43
2019-04-21T12:48:59.934Z,7.50
2019-04-21T12:51:31.335Z,6.93
2019-04-21T12:54:03.789Z,6.97
2019-04-21T12:56:35.750Z,7.07
2019-04-21T12:59:08.006Z,6.77
2019-04-21T13:01:39.556Z,7.43
2019-04-21T13:04:10.858Z,7.17
2019-04-21T13:06:43.469Z,6.60
2019-04-21T13:09:18.330Z,7.00
2019-04-21T13:11:48.888Z,6.63
2019-04-21T13:14:22.071Z,6.53
2019-04-21T13:16:53.566Z,6.77
2019-04-21T13:19:25.248Z,6.57
2019-04-21T13:21:56.611Z,7.00
2019-04-21T13:24:27.929Z,6.43
2019-04-21T13:27:01.585Z,6.67
2019-04-21T13:29:32.370Z,6.30
2019-04-21T13:32:05.467Z,6.53
2019-04-21T13:34:37.900Z,6.07
2019-04-21T13:37:09.731Z,9.07
2019-04-21T13:40:34.424Z,6.93
2019-04-21T13:42:55.024Z,7.00
2019-04-21T13:45:22.014Z,7.30
2019-04-21T13:47:54.743Z,7.07
2019-04-21T13:50:25.646Z,6.80
2019-04-21T13:52:56.986Z,6.40
2019-04-21T13:55:29.604Z,6.50
2019-04-21T13:58:02.085Z,7.37
2019-04-21T14:00:33.853Z,7.10
2019-04-21T14:03:06.960Z,6.97
2019-04-21T14:05:38.685Z,7.20
2019-04-21T14:08:11.300Z,7.03
2019-04-21T14:10:43.907Z,6.93
2019-04-21T14:13:16.455Z,7.30
2019-04-21T14:15:48.815Z,6.63
2019-04-21T14:18:20.917Z,6.83
2019-04-21T14:20:53.303Z,6.40
2019-04-21T14:23:32.434Z,6.50
2019-04-21T14:25:57.786Z,6.73
2019-04-21T14:28:30.202Z,6.60
2019-04-21T14:31:02.216Z,6.67
2019-04-21T14:33:34.181Z,6.70
2019-04-21T14:36:05.700Z,7.33
2019-04-21T14:38:38.467Z,6.83
2019-04-21T14:41:10.364Z,6.93
2019-04-21T14:43:41.855Z,7.07
2019-04-21T14:46:24.985Z,6.83
2019-04-21T14:49:15.219Z,6.70
2019-04-21T14:51:59.390Z,7.23
2019-04-21T14:54:48.946Z,6.30
2019-04-21T14:57:21.217Z,6.50
2019-04-21T14:59:53.063Z,6.50
2019-04-21T15:02:25.537Z,6.40
2019-04-21T15:04:57.860Z,6.60
2019-04-21T15:07:29.235Z,6.40
2019-04-21T15:10:09.781Z,6.47
2019-04-21T15:12:33.968Z,6.30
2019-04-21T15:15:05.832Z,6.07
2019-04-21T15:17:37.871Z,6.03
2019-04-21T15:20:13.855Z,5.73
2019-04-21T15:22:44.194Z,5.50
2019-04-21T15:25:16.239Z,5.63
2019-04-21T15:27:48.776Z,6.10
2019-04-21T15:30:20.751Z,5.60
2019-04-21T15:32:52.734Z,5.63
2019-04-21T15:35:24.951Z,5.47
2019-04-21T15:37:57.911Z,5.50
2019-04-21T15:40:40.780Z,5.93
2019-04-21T15:43:02.495Z,5.73
2019-04-21T15:45:34.888Z,5.17
2019-04-21T15:48:07.756Z,5.30
2019-04-21T15:50:39.795Z,5.43
2019-04-21T15:53:11.980Z,5.80
2019-04-21T15:55:59.613Z,5.27
2019-04-21T15:58:48.504Z,5.77
2019-04-21T16:01:28.285Z,5.23
2019-04-21T16:04:00.969Z,5.60
2019-04-21T16:06:32.678Z,5.27
2019-04-21T16:09:06.417Z,5.17
2019-04-21T16:11:37.979Z,5.10
2019-04-21T16:14:10.201Z,5.03
2019-04-21T16:16:43.177Z,4.67
2019-04-21T16:19:14.645Z,5.10
2019-04-21T16:21:46.530Z,5.50
2019-04-21T16:24:18.428Z,5.07
2019-04-21T16:26:50.810Z,5.23
2019-04-21T16:29:22.977Z,5.37
2019-04-21T16:31:55.204Z,5.23
2019-04-21T16:34:37.892Z,4.93
2019-04-21T16:36:59.780Z,5.30
2019-04-21T16:39:31.542Z,4.70
2019-04-21T16:42:02.950Z,5.37
2019-04-21T16:44:34.667Z,5.10
2019-04-21T16:47:07.650Z,4.90
2019-04-21T16:49:40.019Z,5.27
2019-04-21T16:52:23.960Z,5.10
2019-04-21T16:55:06.385Z,4.90
2019-04-21T16:57:43.806Z,5.10
2019-04-21T17:00:31.225Z,4.80
2019-04-21T17:02:54.697Z,5.10
2019-04-21T17:05:26.210Z,4.97
2019-04-21T17:07:57.827Z,5.50
2019-04-21T17:10:30.657Z,4.83
2019-04-21T17:13:02.321Z,4.60
2019-04-21T17:15:51.571Z,4.63
2019-04-21T17:18:22.773Z,4.53
2019-04-21T17:20:48.369Z,4.70
2019-04-21T17:23:13.519Z,4.83
2019-04-21T17:25:45.311Z,4.87
2019-04-21T17:28:17.373Z,5.33
2019-04-21T17:30:48.970Z,5.00
2019-04-21T17:33:23.344Z,5.27
2019-04-21T17:35:53.374Z,5.47
2019-04-21T17:38:25.868Z,5.33
2019-04-21T17:41:09.310Z,5.80
2019-04-21T17:43:31.865Z,5.13
2019-04-21T17:46:03.297Z,5.50
2019-04-21T17:48:34.813Z,5.03
2019-04-21T17:51:11.831Z,4.87
2019-04-21T17:53:51.566Z,5.20
2019-04-21T17:56:48.103Z,4.90
2019-04-21T17:59:16.395Z,5.13
2019-04-21T18:01:48.434Z,5.60
2019-04-21T18:04:19.815Z,5.57
2019-04-21T18:07:21.570Z,4.90
2019-04-21T18:12:33.380Z,5.10
2019-04-21T18:15:00.084Z,5.23
2019-04-21T18:17:24.633Z,5.57
2019-04-21T18:19:57.241Z,5.83
2019-04-21T18:22:53.516Z,5.60
2019-04-21T18:25:38.459Z,5.50
2019-04-21T18:28:00.644Z,5.47
2019-04-21T18:30:49.480Z,5.57
2019-04-21T18:33:27.378Z,5.77
2019-04-21T18:36:30.243Z,5.90
2019-04-21T18:39:38.071Z,5.60
2019-04-21T18:42:17.585Z,5.97
2019-04-21T18:45:28.146Z,5.83
2019-04-21T18:47:57.072Z,5.37
2019-04-21T18:50:41.629Z,5.30
2019-04-21T18:53:41.618Z,5.47
2019-04-21T18:56:05.322Z,4.97
2019-04-21T18:58:32.782Z,5.23
2019-04-21T19:01:11.796Z,5.30
2019-04-21T19:03:41.964Z,5.20
2019-04-21T19:06:15.249Z,5.40
2019-04-21T19:09:07.653Z,5.20
2019-04-21T19:11:32.922Z,4.80
2019-04-21T19:14:28.030Z,5.00
2019-04-21T19:16:59.056Z,4.90
2019-04-21T19:22:00.581Z,4.87
2019-04-21T19:24:33.550Z,5.33
2019-04-21T19:27:08.042Z,5.63
2019-04-21T19:29:31.608Z,5.17
2019-04-21T19:32:08.729Z,6.00
2019-04-21T19:34:26.783Z,5.70
2019-04-21T19:37:00.716Z,5.50
2019-04-21T19:39:43.362Z,6.47
2019-04-21T19:42:12.708Z,6.70
2019-04-21T19:44:52.062Z,6.93
2019-04-21T19:47:31.638Z,7.57
2019-04-21T19:50:01.942Z,7.07
2019-04-21T19:52:26.595Z,7.80
2019-04-21T19:54:50.404Z,7.93
2019-04-21T19:57:20.849Z,7.43
2019-04-21T19:59:55.761Z,7.90
2019-04-21T20:02:26.816Z,7.80
2019-04-21T20:05:05.062Z,8.60
2019-04-21T20:07:44.234Z,8.73
2019-04-21T20:10:27.006Z,9.47
2019-04-21T20:12:56.999Z,9.50
2019-04-21T20:15:37.406Z,10.03
2019-04-21T20:17:58.775Z,10.70
2019-04-21T20:20:17.328Z,10.00
2019-04-21T20:22:51.966Z,10.47
2019-04-21T20:25:23.713Z,11.27
2019-04-21T20:28:05.242Z,11.13
2019-04-21T20:30:45.020Z,11.50
2019-04-21T20:33:42.837Z,12.13
2019-04-21T20:35:59.008Z,11.90
2019-04-21T20:38:19.146Z,12.23
2019-04-21T20:40:50.378Z,12.97
2019-04-21T20:43:32.182Z,13.30
2019-04-21T20:46:02.415Z,13.07
2019-04-21T20:48:34.068Z,13.73
2019-04-21T20:53:42.606Z,14.47
2019-04-21T20:56:09.022Z,13.90
2019-04-21T20:58:53.744Z,15.57
2019-04-21T21:01:33.178Z,14.90
2019-04-21T21:03:51.795Z,15.10
2019-04-21T21:06:26.123Z,16.00
2019-04-21T21:09:01.553Z,15.57
2019-04-21T21:11:43.461Z,15.53
2019-04-21T21:14:07.423Z,16.33
2019-04-21T21:16:46.177Z,15.87
2019-04-21T21:21:45.599Z,16.43
2019-04-21T21:24:20.521Z,16.13
2019-04-21T21:26:53.988Z,16.37
2019-04-21T21:29:31.166Z,16.70
2019-04-21T21:32:06.647Z,17.43
2019-04-21T21:34:33.149Z,16.83
2019-04-21T21:37:16.003Z,17.30
2019-04-21T21:39:47.202Z,17.47
2019-04-21T21:42:00.938Z,16.57
2019-04-21T21:44:28.283Z,17.83
2019-04-21T21:47:12.052Z,16.97
2019-04-21T21:49:42.691Z,17.53
2019-04-21T21:52:12.779Z,17.77
2019-04-21T21:54:40.000Z,17.87
2019-04-21T21:57:12.429Z,20.00
2019-04-21T21:59:45.308Z,18.40
2019-04-21T22:02:29.329Z,17.00
2019-04-21T22:04:55.834Z,17.60
2019-04-21T22:07:28.023Z,17.10
2019-04-21T22:09:56.381Z,17.73
2019-04-21T22:12:35.001Z,21.33
2019-04-21T22:15:08.951Z,20.07
2019-04-21T22:17:49.309Z,18.97
2019-04-21T22:20:28.506Z,21.50
2019-04-21T22:22:51.733Z,21.20
2019-04-21T22:25:22.594Z,22.40
2019-04-21T22:27:48.775Z,23.30
2019-04-21T22:30:29.971Z,23.50
2019-04-21T22:33:00.623Z,25.00
2019-04-21T22:35:37.869Z,24.73
2019-04-21T22:38:17.412Z,24.77
2019-04-21T22:40:51.930Z,24.10
2019-04-21T22:43:20.689Z,24.40
2019-04-21T22:45:41.126Z,25.67
2019-04-21T22:48:17.495Z,25.87
2019-04-21T22:50:46.582Z,24.03
2019-04-21T22:53:19.444Z,25.50
2019-04-21T22:55:58.664Z,26.40
2019-04-21T22:58:29.291Z,25.67
2019-04-21T23:01:01.525Z,25.50
2019-04-21T23:03:33.963Z,27.03
2019-04-21T23:06:09.748Z,26.47
2019-04-21T23:08:42.376Z,27.07
2019-04-21T23:11:13.889Z,27.53
2019-04-21T23:13:51.665Z,25.90
2019-04-21T23:16:22.804Z,26.47
2019-04-21T23:19:14.273Z,27.17
2019-04-21T23:21:44.205Z,26.67
2019-04-21T23:24:14.851Z,26.00
2019-04-21T23:26:49.310Z,27.20
2019-04-21T23:29:33.424Z,27.27
2019-04-21T23:31:55.099Z,27.40
2019-04-21T23:34:18.376Z,26.77
2019-04-21T23:36:53.051Z,28.10
2019-04-21T23:39:23.679Z,27.90
2019-04-21T23:41:53.946Z,27.53
2019-04-21T23:44:25.982Z,27.10
2019-04-21T23:47:02.818Z,28.33
2019-04-21T23:49:43.100Z,28.00
2019-04-21T23:52:08.147Z,27.97
2019-04-21T23:54:37.483Z,27.87
2019-04-21T23:57:15.080Z,26.90
2019-04-21T23:59:47.101Z,27.13
